Latest Weather Observations for Croker Island Airport

IDD60801

Issued at 6:01 am CST Thursday 16 August 2018 (issued every 10 minutes, with the page automatically refreshed every 10 minutes)

About weather observations | Map of weather stations | Latest weather observations for NT | Other Formats
Station Details ID: 014308 Name: CROKER ISLAND AIRPORT Lat: -11.16 Lon: 132.48 Height: 9.2 m
Data from the previous 72 hours. | See also: Recent months at Croker Island Airport
Date/Time
CST
Temp
°C
App
Temp
°C
Dew
Point
°C
Rel
Hum
%
Delta-T
°C
Wind Press
QNH
hPa
Press
MSL
hPa
Rain since
9am
mm
Dir  Spd
km/h
Gust
km/h
Spd
kts
Gust
kts
16/06:00am 23.7 24.1 19.0 75 3.0 ESE 15 20 8 11 1012.5 1012.4 0.0
16/05:30am 24.4 26.1 20.1 77 2.8 E 11 20 6 11 1012.1 1012.0 0.0
16/05:00am 24.2 25.4 19.9 77 2.8 E 13 20 7 11 1012.0 1011.9 0.0
16/04:30am 24.4 25.3 20.1 77 2.8 E 15 20 8 11 1012.2 1012.1 0.0
16/04:00am 24.5 25.4 20.0 76 2.9 E 15 20 8 11 1012.3 1012.2 0.0
16/03:30am 24.2 25.8 19.9 77 2.8 ENE 11 17 6 9 1012.4 1012.3 0.0
16/03:00am 24.4 25.7 20.1 77 2.8 ENE 13 22 7 12 1012.6 1012.5 0.0
16/02:30am 24.4 25.3 20.1 77 2.8 ENE 15 22 8 12 1012.7 1012.6 0.0
16/02:00am 24.6 26.1 20.5 78 2.7 ENE 13 20 7 11 1012.9 1012.8 0.0
16/01:30am 24.5 26.5 20.8 80 2.4 ENE 11 17 6 9 1013.1 1013.0 0.0
16/01:00am 24.0 26.6 20.5 81 2.3 ENE 7 13 4 7 1013.6 1013.5 0.0
16/12:30am 23.3 25.6 19.9 81 2.2 ENE 7 9 4 5 1013.7 1013.6 0.0
16/12:00am 23.2 25.4 19.2 78 2.5 E 6 7 3 4 1013.5 1013.4 0.0
 
Date/Time
CST
Temp
°C
App
Temp
°C
Dew
Point
°C
Rel
Hum
%
Delta-T
°C
Wind Press
QNH
hPa
Press
MSL
hPa
Rain since
9am
mm
Dir  Spd
km/h
Gust
km/h
Spd
kts
Gust
kts
15/11:30pm 23.8 26.0 19.3 76 2.9 NE 6 7 3 4 1013.6 1013.5 0.0
15/11:00pm 24.1 26.2 19.4 75 3.0 NE 7 9 4 5 1013.8 1013.7 0.0
15/10:30pm 24.2 25.8 19.1 73 3.3 NE 9 13 5 7 1013.7 1013.6 0.0
15/10:00pm 24.2 25.6 18.6 71 3.5 ENE 9 13 5 7 1013.7 1013.6 0.0
15/09:30pm 24.2 25.5 18.4 70 3.7 NE 9 13 5 7 1013.7 1013.6 0.0
15/09:00pm 24.2 25.1 18.4 70 3.7 ENE 11 13 6 7 1013.7 1013.6 0.0
15/08:30pm 24.2 25.0 18.2 69 3.8 ENE 11 15 6 8 1013.4 1013.3 0.0
15/08:00pm 24.1 24.4 16.9 64 4.4 NE 11 15 6 8 1013.1 1013.0 0.0
15/07:30pm 24.3 24.3 16.3 61 4.9 ENE 11 15 6 8 1012.8 1012.7 0.0
15/07:00pm 24.7 25.1 17.2 63 4.7 ENE 11 17 6 9 1012.6 1012.5 0.0
15/06:30pm 25.2 25.4 17.7 63 4.7 ENE 13 22 7 12 1012.3 1012.2 0.0
15/06:00pm 26.1 25.7 18.0 61 5.1 ENE 17 26 9 14 1012.1 1012.0 0.0
15/05:30pm 26.9 25.8 17.7 57 5.8 ENE 20 32 11 17 1012.1 1012.0 0.0
15/05:00pm 27.3 26.3 17.5 55 6.2 E 19 28 10 15 1012.2 1012.1 0.0
15/04:30pm 27.5 25.5 17.4 54 6.4 E 24 39 13 21 1012.3 1012.2 0.0
15/04:00pm 27.3 25.6 17.2 54 6.3 E 22 35 12 19 1012.4 1012.3 0.0
15/03:30pm 28.5 27.8 17.4 51 7.0 ESE 17 28 9 15 1012.5 1012.4 0.0
15/03:00pm 28.5 27.1 17.1 50 7.2 ESE 20 33 11 18 1012.7 1012.6 0.0
15/02:30pm 28.2 26.8 16.5 49 7.3 ESE 19 33 10 18 1013.0 1012.9 0.0
15/02:00pm 28.1 26.6 16.7 50 7.1 E 20 33 11 18 1013.3 1013.2 0.0
15/01:30pm 27.9 27.1 18.0 55 6.3 ESE 19 30 10 16 1013.6 1013.5 0.0
15/01:00pm 27.4 26.7 18.7 59 5.6 E 20 30 11 16 1013.8 1013.7 0.0
15/12:30pm 27.7 27.4 19.2 60 5.5 ESE 19 30 10 16 1014.2 1014.1 0.0
15/12:00pm 27.3 26.9 18.9 60 5.4 ESE 19 26 10 14 1014.4 1014.3 0.0
15/11:30am 27.2 26.9 19.5 62 5.0 ESE 20 32 11 17 1014.8 1014.7 0.0
15/11:00am 26.6 25.9 18.7 62 5.0 ESE 20 33 11 18 1015.3 1015.2 0.0
15/10:30am 26.0 25.3 19.4 67 4.3 E 22 32 12 17 1015.4 1015.3 0.0
15/10:00am 25.6 25.3 19.5 69 3.9 E 20 30 11 16 1015.6 1015.5 0.0
15/09:30am 25.4 25.7 19.5 70 3.8 E 17 30 9 16 1015.6 1015.5 0.0
15/09:00am 24.8 24.7 19.6 73 3.3 E 19 28 10 15 1015.5 1015.4 0.0
15/08:30am 24.3 24.1 19.4 74 3.1 E 19 28 10 15 1015.2 1015.1 0.0
15/08:00am 23.9 24.2 19.6 77 2.8 ESE 17 24 9 13 1015.1 1015.0 0.0
15/07:30am 22.4 23.5 18.8 80 2.3 ESE 11 15 6 8 1014.9 1014.8 0.0
15/07:00am 21.6 22.7 18.0 80 2.2 SE 9 13 5 7 1014.9 1014.8 0.0
15/06:30am 21.6 22.6 17.8 79 2.4 SE 9 13 5 7 1014.7 1014.6 0.0
15/06:00am 21.7 22.7 17.7 78 2.5 SE 9 13 5 7 1014.4 1014.3 0.0
15/05:30am 21.8 22.9 17.2 75 2.8 SE 7 11 4 6 1014.5 1014.4 0.0
15/05:00am 22.2 22.4 16.7 71 3.4 ESE 11 15 6 8 1014.4 1014.3 0.0
15/04:30am 22.6 23.3 17.1 71 3.4 SE 9 15 5 8 1014.3 1014.2 0.0
15/04:00am 23.4 23.9 17.4 69 3.7 ESE 11 20 6 11 1014.4 1014.3 0.0
15/03:30am 24.4 24.1 18.3 69 3.8 ESE 17 26 9 14 1014.3 1014.2 0.0
15/03:00am 24.4 24.0 18.1 68 4.0 E 17 26 9 14 1014.2 1014.1 0.0
15/02:30am 24.5 25.2 18.9 71 3.6 E 13 20 7 11 1014.3 1014.2 0.0
15/02:00am 24.4 24.9 19.2 73 3.3 ENE 15 20 8 11 1014.5 1014.4 0.0
15/01:30am 24.5 25.2 19.6 74 3.2 ENE 15 24 8 13 1014.7 1014.6 0.0
15/01:00am 24.4 25.5 19.7 75 3.0 ENE 13 20 7 11 1014.8 1014.7 0.0
15/12:30am 23.9 25.2 19.4 76 2.9 ENE 11 17 6 9 1015.0 1014.9 0.0
15/12:00am 23.7 25.4 19.4 77 2.7 ENE 9 11 5 6 1015.1 1015.0 0.0
 
Date/Time
CST
Temp
°C
App
Temp
°C
Dew
Point
°C
Rel
Hum
%
Delta-T
°C
Wind Press
QNH
hPa
Press
MSL
hPa
Rain since
9am
mm
Dir  Spd
km/h
Gust
km/h
Spd
kts
Gust
kts
14/11:30pm 23.6 25.1 18.9 75 3.0 ENE 9 13 5 7 1015.1 1015.0 0.0
14/11:00pm 23.7 25.2 18.8 74 3.1 ENE 9 11 5 6 1015.2 1015.1 0.0
14/10:30pm 23.7 25.0 18.4 72 3.3 ENE 9 11 5 6 1015.1 1015.0 0.0
14/10:00pm 23.6 24.6 17.8 70 3.6 ENE 9 13 5 7 1014.9 1014.8 0.0
14/09:30pm 23.6 24.5 17.6 69 3.7 ENE 9 13 5 7 1014.7 1014.6 0.0
14/09:00pm 23.6 24.2 16.9 66 4.1 ENE 9 13 5 7 1014.6 1014.5 0.0
14/08:30pm 23.9 24.5 16.7 64 4.4 ENE 9 13 5 7 1014.5 1014.4 0.0
14/08:00pm 24.0 24.0 16.3 62 4.7 ENE 11 15 6 8 1014.3 1014.2 0.0
14/07:30pm 24.2 24.0 15.7 59 5.1 ENE 11 15 6 8 1014.1 1014.0 0.0
14/07:00pm 24.7 24.3 15.3 56 5.7 ENE 11 15 6 8 1013.8 1013.7 0.0
14/06:30pm 25.3 24.2 15.3 54 6.0 ENE 15 20 8 11 1013.5 1013.4 0.0
14/06:00pm 26.4 24.8 15.1 49 6.8 ENE 17 24 9 13 1013.3 1013.2 0.0
14/05:30pm 27.3 25.7 15.0 47 7.4 E 17 30 9 16 1013.2 1013.1 0.0
14/05:00pm 28.2 25.9 14.1 42 8.4 E 19 30 10 16 1013.1 1013.0 0.0
14/04:30pm 28.5 25.2 11.6 35 9.7 E 20 32 11 17 1013.0 1012.9 0.0
14/04:00pm 28.1 25.4 13.6 41 8.6 E 20 28 11 15 1013.1 1013.0 0.0
14/03:30pm 28.7 25.8 14.1 40 8.8 E 22 33 12 18 1013.3 1013.2 0.0
14/03:00pm 28.7 25.6 13.4 39 9.1 E 22 35 12 19 1013.5 1013.4 0.0
14/02:30pm 28.5 24.2 12.0 36 9.6 E 26 39 14 21 1014.0 1013.9 0.0
14/02:00pm 28.2 24.0 12.5 37 9.2 E 26 43 14 23 1014.3 1014.2 0.0
14/01:45pm 27.8 23.0 11.8 37 9.2 ESE 28 50 15 27 1014.6 1014.5 0.0
14/01:30pm 27.8 23.0 11.8 37 9.2 E 28 44 15 24 1014.8 1014.7 0.0
14/01:00pm 27.7 21.8 11.3 36 9.4 E 33 50 18 27 1015.2 1015.1 0.0
14/12:30pm 27.5 22.9 13.4 41 8.3 E 30 50 16 27 1015.7 1015.6 0.0
14/12:00pm 27.4 22.4 11.0 36 9.3 E 28 44 15 24 1016.3 1016.2 0.0
14/11:30am 27.7 23.1 10.9 35 9.5 ESE 26 37 14 20 1016.4 1016.3 0.0
14/11:00am 27.1 22.2 9.9 34 9.6 E 26 39 14 21 1016.7 1016.6 0.0
14/10:30am 26.8 21.9 8.3 31 10.0 ESE 24 39 13 21 1017.2 1017.1 0.0
14/10:00am 26.0 21.9 10.2 37 8.8 ESE 22 35 12 19 1017.4 1017.3 0.0
14/09:30am 25.6 21.4 9.8 37 8.7 ESE 22 33 12 18 1017.7 1017.6 0.0
14/09:00am 24.5 21.1 10.4 41 7.8 SE 19 30 10 16 1017.7 1017.6 0.0
14/08:30am 23.7 21.2 11.1 45 7.0 SE 15 24 8 13 1017.5 1017.4 0.0
14/08:00am 22.7 20.5 10.8 47 6.6 SE 13 19 7 10 1017.5 1017.4 0.0
14/07:30am 21.5 19.9 10.3 49 6.1 SE 9 15 5 8 1017.2 1017.1 0.0
14/07:00am 20.6 18.9 9.8 50 5.8 SE 9 11 5 6 1016.9 1016.8 0.0
14/06:30am 20.5 19.0 9.1 48 6.0 SE 7 11 4 6 1016.6 1016.5 0.0
14/06:00am 20.6 18.6 8.6 46 6.3 SE 9 11 5 6 1016.5 1016.4 0.0
14/05:30am 21.1 19.0 8.4 44 6.6 SE 9 15 5 8 1016.4 1016.3 0.0
14/05:00am 21.4 19.3 8.3 43 6.9 ESE 9 15 5 8 1016.3 1016.2 0.0
14/04:30am 22.1 19.1 7.9 40 7.4 ESE 13 19 7 10 1016.3 1016.2 0.0
14/04:00am 22.6 18.7 7.2 37 8.0 ESE 17 24 9 13 1016.3 1016.2 0.0
14/03:30am 23.0 19.1 7.1 36 8.2 ESE 17 28 9 15 1016.2 1016.1 0.0
14/03:00am 22.6 20.2 10.1 45 6.8 SE 13 22 7 12 1016.3 1016.2 0.0
14/02:30am 23.0 21.0 11.4 48 6.5 SE 13 20 7 11 1016.3 1016.2 0.0
14/02:00am 23.3 21.6 12.3 50 6.3 SE 13 24 7 13 1016.3 1016.2 0.0
14/01:30am 23.7 21.9 13.3 52 6.0 SE 15 26 8 14 1016.4 1016.3 0.0
14/01:00am 24.2 22.6 14.0 53 6.0 ESE 15 24 8 13 1016.5 1016.4 0.0
14/12:30am 24.5 22.2 14.0 52 6.2 ESE 19 28 10 15 1016.5 1016.4 0.0
14/12:00am 25.0 22.7 14.2 51 6.4 ESE 19 33 10 18 1016.6 1016.5 0.0
 
Date/Time
CST
Temp
°C
App
Temp
°C
Dew
Point
°C
Rel
Hum
%
Delta-T
°C
Wind Press
QNH
hPa
Press
MSL
hPa
Rain since
9am
mm
Dir  Spd
km/h
Gust
km/h
Spd
kts
Gust
kts
13/11:30pm 24.5 24.7 17.7 66 4.2 E 13 19 7 10 1016.5 1016.4 0.0
13/11:00pm 24.5 24.7 17.7 66 4.2 E 13 17 7 9 1016.5 1016.4 0.0
13/10:30pm 24.4 24.8 18.1 68 4.0 E 13 20 7 11 1016.4 1016.3 0.0
13/10:00pm 24.3 24.9 17.8 67 4.1 E 11 20 6 11 1016.4 1016.3 0.0
13/09:30pm 24.1 24.7 17.8 68 3.9 E 11 15 6 8 1016.2 1016.1 0.0
13/09:00pm 23.8 25.0 17.3 67 4.0 ENE 7 11 4 6 1016.1 1016.0 0.0
13/08:30pm 24.0 24.8 17.3 66 4.1 E 9 17 5 9 1015.7 1015.6 0.0
13/08:00pm 24.1 24.4 16.1 61 4.9 E 9 11 5 6 1015.5 1015.4 0.0
13/07:30pm 24.1 24.4 16.1 61 4.9 E 9 13 5 7 1015.1 1015.0 0.0
13/07:00pm 24.6 24.4 15.8 58 5.3 E 11 17 6 9 1014.7 1014.6 0.0
13/06:30pm 25.3 24.6 15.3 54 6.0 ENE 13 24 7 13 1014.4 1014.3 0.0
13/06:00pm 26.3 24.8 15.4 51 6.6 E 17 28 9 15 1014.2 1014.1 0.0
13/05:30pm 26.6 24.6 15.0 49 7.0 E 19 28 10 15 1013.9 1013.8 0.0
13/05:00pm 27.2 25.2 15.6 49 7.1 E 20 28 11 15 1013.9 1013.8 0.0
13/04:30pm 28.0 25.4 15.0 45 7.9 ENE 22 33 12 18 1013.9 1013.8 0.0
13/04:00pm 28.4 25.1 12.7 38 9.2 ESE 22 33 12 18 1013.8 1013.7 0.0
13/03:30pm 28.6 24.5 11.6 34 9.8 ESE 24 39 13 21 1013.9 1013.8 0.0
13/03:00pm 29.0 24.9 12.8 36 9.5 E 26 37 14 20 1014.1 1014.0 0.0
13/02:30pm 28.9 24.9 11.9 35 9.9 ESE 24 37 13 20 1014.4 1014.3 0.0
13/02:00pm 28.9 25.2 12.8 37 9.5 E 24 35 13 19 1014.7 1014.6 0.0
13/01:30pm 29.3 26.1 13.1 37 9.6 ESE 22 35 12 19 1015.1 1015.0 0.0
13/01:00pm 29.1 26.0 13.3 37 9.4 E 22 39 12 21 1015.4 1015.3 0.0
13/12:30pm 28.6 25.2 12.5 37 9.4 ESE 22 33 12 18 1015.7 1015.6 0.0
13/12:00pm 28.2 24.4 12.5 37 9.2 ESE 24 35 13 19 1016.3 1016.2 0.0
13/11:30am 27.8 23.5 12.2 38 9.0 ESE 26 41 14 22 1016.5 1016.4 0.0
13/11:00am 27.2 22.5 12.0 38 8.8 ESE 28 43 15 23 1016.9 1016.8 0.0
13/10:30am 26.6 22.1 11.5 39 8.6 ESE 26 44 14 24 1017.0 1016.9 0.0
13/10:00am 26.2 21.6 12.3 42 8.0 ESE 28 39 15 21 1017.1 1017.0 0.0
13/09:30am 25.2 20.3 12.4 45 7.3 SE 30 43 16 23 1017.3 1017.2 0.0
13/09:00am 24.8 20.7 12.7 47 7.0 SE 26 35 14 19 1017.1 1017.0 1.8
13/08:30am 24.3 20.7 12.9 49 6.6 ESE 24 37 13 20 1016.9 1016.8 1.8
13/08:00am 23.6 20.6 12.6 50 6.3 ESE 20 33 11 18 1016.9 1016.8 1.8
13/07:30am 22.9 20.6 13.1 54 5.6 ESE 17 26 9 14 1016.7 1016.6 1.8
13/07:00am 21.5 20.3 12.9 58 4.9 ESE 11 19 6 10 1016.5 1016.4 1.8
13/06:30am 21.4 20.1 12.5 57 5.0 SE 11 15 6 8 1016.1 1016.0 1.8

Other Formats:

Comma delimited format used in spreadsheet applications
http://www.bom.gov.au/fwo/IDD60801/IDD60801.94108.axf

JavaScript Object Notation format (JSON) in row-major order
http://www.bom.gov.au/fwo/IDD60801/IDD60801.94108.json